Ana Sayfa
METAR-TAF:

METAR-TAF

Havaalanları :

Kunming, Çin

Enlem: 25-01N, Boylam: 102-41E, yükseklik: 1892 m

Güncel hava durumu gözlemi

Rapor saat 00:00 UTC de 28 dakika önce yapıldı.
Rüzgar güneybatıdan 8 kt
Sıcaklık 9°C
Nem 87%
Basınç 1024 hPa
Görüş mesafesi 10 km veya daha fazla
1500 m altında bulut yok ve kümülonimbus yok

METAR: ZPPP 210000Z 23004MPS CAVOK 09/07 Q1024 NOSIG

Saat: 08:28 (00:28 UTC)

Tahmin

Rapor saat 19:12 UTC de 5 saat ve 16 dakika önce yapıldı.
Ayın 21'si saat 00 UTC'den ayın 21'si saat 24 UTC'ye kadar geçerli Tahmin
Rüzgar güneybatıdan 12 kt
Görüş mesafesi 10 km veya daha fazla
1500 m altında bulut yok ve kümülonimbus yok

TAF: ZPPP 201912Z 2100/2124 22006MPS CAVOK TX18/2108Z TN07/2123Z

4.000'den fazla havaalanı için hava durumu gözlemleri ve tahminleri (METAR ve TAF raporları).

Kullanılabilir istasyonlar harita üzerinde sarı ve kırmızı noktalarla gösterilir.

İstasyonun adını görmek için fareyi noktanın üzerinde gezdirin.

Sonrasında hava gözlem ve tahminlerini görmek için tıklayın.

Haritayı değiştirmek için: yaklaştırmak için siyah artı işaretli yeşil düğmeye ve uzaklaştırmak için de eksi işaretli düğmeye hızla tıklayın; bitişik haritalar için yeşil okları kullanın.


METAR-TAF: